IGO581 EDDF-EDDS
Flight info
| Callsign | IGO581 |
|---|---|
| Flight time | 0h 22m |
| Altitude | 17000 |
| Route | ANEKI2L/18 ANEKI Y163 NEKLO Y171 INKAM N850 KRH T128 BADSO BADSO2A |
| Aircraft | A320/M-SDE3FGHIRWY/LB1 |
Departure
| Time | 2026-04-17 21:41 |
|---|---|
| Airport | Frankfurt Main Airport (EDDF) |
Arrival
| Time | 2026-04-17 22:04 |
|---|---|
| Airport | Stuttgart Airport (EDDS) |
| Time | Latitude | Longitude | Altitude | Speed | Heading |
|---|---|---|---|---|---|
| 2026-04-17 20:59 | 50.04600 | 8.56791 | 379 ft | 0 kts | 294° |
| 2026-04-17 21:26 | 50.04600 | 8.56792 | 378 ft | 1 kts | 294° |
| 2026-04-17 21:26 | 50.04594 | 8.56811 | 378 ft | 3 kts | 290° |
| 2026-04-17 21:26 | 50.04588 | 8.56841 | 378 ft | 3 kts | 279° |
| 2026-04-17 21:26 | 50.04587 | 8.56871 | 378 ft | 3 kts | 256° |
| 2026-04-17 21:27 | 50.04594 | 8.56894 | 378 ft | 2 kts | 210° |
| 2026-04-17 21:27 | 50.04601 | 8.56900 | 378 ft | 1 kts | 205° |
| 2026-04-17 21:30 | 50.04592 | 8.56894 | 378 ft | 3 kts | 205° |
| 2026-04-17 21:31 | 50.04568 | 8.56877 | 378 ft | 5 kts | 205° |
| 2026-04-17 21:31 | 50.04529 | 8.56857 | 378 ft | 7 kts | 186° |
| 2026-04-17 21:31 | 50.04477 | 8.56850 | 378 ft | 8 kts | 192° |
| 2026-04-17 21:31 | 50.04438 | 8.56777 | 378 ft | 10 kts | 248° |
| 2026-04-17 21:32 | 50.04409 | 8.56662 | 378 ft | 13 kts | 249° |
| 2026-04-17 21:32 | 50.04377 | 8.56529 | 378 ft | 11 kts | 249° |
| 2026-04-17 21:32 | 50.04353 | 8.56424 | 378 ft | 9 kts | 250° |
| 2026-04-17 21:32 | 50.04328 | 8.56317 | 378 ft | 12 kts | 250° |
| 2026-04-17 21:33 | 50.04297 | 8.56185 | 378 ft | 14 kts | 250° |
| 2026-04-17 21:33 | 50.04259 | 8.56029 | 378 ft | 17 kts | 249° |
| 2026-04-17 21:33 | 50.04216 | 8.55849 | 378 ft | 19 kts | 249° |
| 2026-04-17 21:33 | 50.04174 | 8.55676 | 378 ft | 7 kts | 250° |
| 2026-04-17 21:34 | 50.04158 | 8.55607 | 378 ft | 8 kts | 250° |
| 2026-04-17 21:34 | 50.04139 | 8.55528 | 378 ft | 9 kts | 250° |
| 2026-04-17 21:34 | 50.04084 | 8.55299 | 378 ft | 14 kts | 250° |
| 2026-04-17 21:35 | 50.04048 | 8.55147 | 378 ft | 16 kts | 250° |
| 2026-04-17 21:35 | 50.04006 | 8.54970 | 378 ft | 19 kts | 250° |
| 2026-04-17 21:35 | 50.03959 | 8.54773 | 378 ft | 21 kts | 250° |
| 2026-04-17 21:35 | 50.03904 | 8.54549 | 378 ft | 23 kts | 250° |
| 2026-04-17 21:36 | 50.03879 | 8.54444 | 378 ft | 6 kts | 249° |
| 2026-04-17 21:36 | 50.03859 | 8.54375 | 378 ft | 8 kts | 239° |
| 2026-04-17 21:36 | 50.03822 | 8.54290 | 378 ft | 11 kts | 238° |
| 2026-04-17 21:36 | 50.03800 | 8.54226 | 378 ft | 6 kts | 245° |
| 2026-04-17 21:37 | 50.03793 | 8.54201 | 378 ft | 0 kts | 248° |
| 2026-04-17 21:37 | 50.03786 | 8.54170 | 378 ft | 4 kts | 249° |
| 2026-04-17 21:37 | 50.03767 | 8.54094 | 378 ft | 14 kts | 250° |
| 2026-04-17 21:37 | 50.03725 | 8.53917 | 378 ft | 19 kts | 249° |
| 2026-04-17 21:38 | 50.03676 | 8.53714 | 378 ft | 21 kts | 250° |
| 2026-04-17 21:38 | 50.03620 | 8.53488 | 378 ft | 24 kts | 249° |
| 2026-04-17 21:38 | 50.03560 | 8.53239 | 378 ft | 26 kts | 250° |
| 2026-04-17 21:38 | 50.03511 | 8.53032 | 378 ft | 17 kts | 250° |
| 2026-04-17 21:39 | 50.03468 | 8.52867 | 378 ft | 13 kts | 245° |
| 2026-04-17 21:39 | 50.03442 | 8.52777 | 378 ft | 9 kts | 250° |
| 2026-04-17 21:39 | 50.03426 | 8.52707 | 378 ft | 8 kts | 250° |
| 2026-04-17 21:39 | 50.03402 | 8.52636 | 378 ft | 9 kts | 225° |
| 2026-04-17 21:40 | 50.03349 | 8.52599 | 378 ft | 9 kts | 184° |
| 2026-04-17 21:40 | 50.03343 | 8.52599 | 378 ft | 0 kts | 182° |
| 2026-04-17 21:40 | 50.03342 | 8.52599 | 378 ft | 1 kts | 182° |
| 2026-04-17 21:40 | 50.03277 | 8.52598 | 378 ft | 33 kts | 180° |
| 2026-04-17 21:41 | 50.02792 | 8.52601 | 379 ft | 104 kts | 179° |
| 2026-04-17 21:41 | 50.01828 | 8.52618 | 388 ft | 170 kts | 179° |
| 2026-04-17 21:41 | 50.00632 | 8.52611 | 1086 ft | 173 kts | 181° |
| 2026-04-17 21:41 | 49.99395 | 8.52597 | 1577 ft | 184 kts | 179° |
| 2026-04-17 21:42 | 49.98061 | 8.52680 | 1975 ft | 203 kts | 177° |
| 2026-04-17 21:42 | 49.96588 | 8.52805 | 2318 ft | 219 kts | 176° |
| 2026-04-17 21:42 | 49.95031 | 8.52926 | 2745 ft | 227 kts | 177° |
| 2026-04-17 21:42 | 49.93442 | 8.53032 | 3472 ft | 230 kts | 177° |
| 2026-04-17 21:43 | 49.91841 | 8.53145 | 4274 ft | 233 kts | 177° |
| 2026-04-17 21:43 | 49.90194 | 8.53269 | 5014 ft | 239 kts | 178° |
| 2026-04-17 21:43 | 49.88520 | 8.53391 | 5772 ft | 243 kts | 180° |
| 2026-04-17 21:43 | 49.86828 | 8.53506 | 6603 ft | 243 kts | 182° |
| 2026-04-17 21:44 | 49.85139 | 8.53628 | 7455 ft | 244 kts | 182° |
| 2026-04-17 21:44 | 49.83406 | 8.53756 | 8066 ft | 257 kts | 182° |
| 2026-04-17 21:44 | 49.81537 | 8.53901 | 8401 ft | 282 kts | 179° |
| 2026-04-17 21:44 | 49.79568 | 8.54809 | 8659 ft | 313 kts | 155° |
| 2026-04-17 21:45 | 49.77675 | 8.56672 | 9066 ft | 331 kts | 148° |
| 2026-04-17 21:45 | 49.75749 | 8.58747 | 9489 ft | 345 kts | 148° |
| 2026-04-17 21:45 | 49.73708 | 8.60834 | 9888 ft | 358 kts | 150° |
| 2026-04-17 21:45 | 49.71542 | 8.62871 | 10251 ft | 371 kts | 152° |
| 2026-04-17 21:46 | 49.70022 | 8.64224 | 10578 ft | 376 kts | 153° |
| 2026-04-17 21:46 | 49.67729 | 8.66228 | 11183 ft | 380 kts | 153° |
| 2026-04-17 21:46 | 49.65419 | 8.68261 | 11728 ft | 385 kts | 153° |
| 2026-04-17 21:46 | 49.63103 | 8.70337 | 12112 ft | 387 kts | 152° |
| 2026-04-17 21:47 | 49.60773 | 8.72455 | 12491 ft | 389 kts | 152° |
| 2026-04-17 21:47 | 49.58434 | 8.74572 | 12832 ft | 391 kts | 152° |
| 2026-04-17 21:47 | 49.56111 | 8.76664 | 12976 ft | 391 kts | 152° |
| 2026-04-17 21:47 | 49.53731 | 8.78808 | 13001 ft | 394 kts | 152° |
| 2026-04-17 21:48 | 49.51390 | 8.80913 | 13000 ft | 394 kts | 152° |
| 2026-04-17 21:48 | 49.48988 | 8.83065 | 13002 ft | 396 kts | 153° |
| 2026-04-17 21:48 | 49.46617 | 8.85183 | 13001 ft | 399 kts | 153° |
| 2026-04-17 21:48 | 49.44239 | 8.87305 | 12994 ft | 384 kts | 153° |
| 2026-04-17 21:49 | 49.41955 | 8.89343 | 12995 ft | 374 kts | 153° |
| 2026-04-17 21:49 | 49.39712 | 8.91348 | 12999 ft | 373 kts | 153° |
| 2026-04-17 21:49 | 49.37495 | 8.93324 | 13000 ft | 373 kts | 153° |
| 2026-04-17 21:49 | 49.35217 | 8.95344 | 13000 ft | 373 kts | 153° |
| 2026-04-17 21:50 | 49.33001 | 8.97310 | 13000 ft | 373 kts | 153° |
| 2026-04-17 21:50 | 49.30752 | 8.99304 | 13003 ft | 373 kts | 153° |
| 2026-04-17 21:50 | 49.28536 | 9.01268 | 12898 ft | 365 kts | 153° |
| 2026-04-17 21:50 | 49.26349 | 9.03214 | 12464 ft | 363 kts | 153° |
| 2026-04-17 21:51 | 49.24156 | 9.05157 | 11966 ft | 365 kts | 153° |
| 2026-04-17 21:51 | 49.21971 | 9.07090 | 11465 ft | 361 kts | 153° |
| 2026-04-17 21:51 | 49.19805 | 9.09008 | 10965 ft | 358 kts | 153° |
| 2026-04-17 21:51 | 49.17652 | 9.10909 | 10467 ft | 357 kts | 153° |
| 2026-04-17 21:52 | 49.15504 | 9.12802 | 10007 ft | 353 kts | 153° |
| 2026-04-17 21:52 | 49.13416 | 9.14646 | 9799 ft | 341 kts | 153° |
| 2026-04-17 21:52 | 49.11406 | 9.16423 | 9657 ft | 327 kts | 153° |
| 2026-04-17 21:52 | 49.09471 | 9.18128 | 9527 ft | 315 kts | 153° |
| 2026-04-17 21:53 | 49.07602 | 9.19767 | 9404 ft | 304 kts | 153° |
| 2026-04-17 21:53 | 49.05795 | 9.21345 | 9206 ft | 296 kts | 154° |
| 2026-04-17 21:53 | 49.04022 | 9.22890 | 8884 ft | 294 kts | 154° |
| 2026-04-17 21:53 | 49.02247 | 9.24434 | 8541 ft | 292 kts | 154° |
| 2026-04-17 21:54 | 49.00491 | 9.25972 | 8198 ft | 291 kts | 153° |
| 2026-04-17 21:54 | 48.98745 | 9.27508 | 7896 ft | 288 kts | 153° |
| 2026-04-17 21:54 | 48.97045 | 9.29007 | 7773 ft | 278 kts | 153° |
| 2026-04-17 21:54 | 48.95407 | 9.30464 | 7674 ft | 268 kts | 153° |
| 2026-04-17 21:55 | 48.93832 | 9.31884 | 7580 ft | 258 kts | 153° |
| 2026-04-17 21:55 | 48.92325 | 9.33263 | 7479 ft | 249 kts | 152° |
| 2026-04-17 21:55 | 48.90925 | 9.34762 | 7336 ft | 244 kts | 146° |
| 2026-04-17 21:55 | 48.89632 | 9.36392 | 7172 ft | 239 kts | 143° |
| 2026-04-17 21:56 | 48.88381 | 9.38020 | 6985 ft | 235 kts | 143° |
| 2026-04-17 21:56 | 48.87146 | 9.39608 | 6775 ft | 231 kts | 145° |
| 2026-04-17 21:56 | 48.85894 | 9.41100 | 6562 ft | 227 kts | 146° |
| 2026-04-17 21:56 | 48.84650 | 9.42534 | 6353 ft | 223 kts | 145° |
| 2026-04-17 21:57 | 48.83426 | 9.43958 | 6150 ft | 219 kts | 144° |
| 2026-04-17 21:57 | 48.82242 | 9.45328 | 5995 ft | 210 kts | 144° |
| 2026-04-17 21:57 | 48.81090 | 9.46649 | 5766 ft | 205 kts | 143° |
| 2026-04-17 21:57 | 48.79976 | 9.47915 | 5539 ft | 194 kts | 143° |
| 2026-04-17 21:58 | 48.78925 | 9.49103 | 5322 ft | 182 kts | 143° |
| 2026-04-17 21:58 | 48.77938 | 9.50194 | 5117 ft | 170 kts | 144° |
| 2026-04-17 21:58 | 48.76995 | 9.51185 | 4903 ft | 160 kts | 146° |
| 2026-04-17 21:58 | 48.75988 | 9.51629 | 4686 ft | 151 kts | 184° |
| 2026-04-17 21:59 | 48.75035 | 9.51010 | 4497 ft | 149 kts | 220° |
| 2026-04-17 21:59 | 48.74424 | 9.49763 | 4344 ft | 149 kts | 244° |
| 2026-04-17 21:59 | 48.74010 | 9.48330 | 4204 ft | 148 kts | 247° |
| 2026-04-17 21:59 | 48.73661 | 9.46866 | 4064 ft | 148 kts | 252° |
| 2026-04-17 22:00 | 48.73382 | 9.45389 | 4009 ft | 149 kts | 253° |
| 2026-04-17 22:00 | 48.73088 | 9.43868 | 3839 ft | 147 kts | 254° |
| 2026-04-17 22:00 | 48.72816 | 9.42374 | 3665 ft | 147 kts | 253° |
| 2026-04-17 22:00 | 48.72516 | 9.40899 | 3497 ft | 146 kts | 253° |
| 2026-04-17 22:01 | 48.72247 | 9.39435 | 3320 ft | 146 kts | 254° |
| 2026-04-17 22:01 | 48.71968 | 9.37960 | 3126 ft | 145 kts | 253° |
| 2026-04-17 22:01 | 48.71682 | 9.36495 | 2933 ft | 145 kts | 253° |
| 2026-04-17 22:01 | 48.71411 | 9.35028 | 2739 ft | 145 kts | 255° |
| 2026-04-17 22:02 | 48.71146 | 9.33559 | 2547 ft | 144 kts | 254° |
| 2026-04-17 22:02 | 48.70859 | 9.32108 | 2356 ft | 144 kts | 252° |
| 2026-04-17 22:02 | 48.70582 | 9.30654 | 2164 ft | 143 kts | 254° |
| 2026-04-17 22:02 | 48.70306 | 9.29208 | 1965 ft | 143 kts | 253° |
| 2026-04-17 22:03 | 48.70032 | 9.27765 | 1770 ft | 143 kts | 254° |
| 2026-04-17 22:03 | 48.69755 | 9.26323 | 1567 ft | 142 kts | 253° |
| 2026-04-17 22:03 | 48.69495 | 9.24882 | 1386 ft | 142 kts | 254° |
| 2026-04-17 22:03 | 48.69233 | 9.23491 | 1290 ft | 122 kts | 254° |
| 2026-04-17 22:04 | 48.69046 | 9.22508 | 1290 ft | 72 kts | 255° |
| 2026-04-17 22:04 | 48.68957 | 9.22035 | 1290 ft | 27 kts | 257° |
| 2026-04-17 22:04 | 48.68943 | 9.21770 | 1290 ft | 22 kts | 276° |
| 2026-04-17 22:04 | 48.68961 | 9.21630 | 1290 ft | 0 kts | 283° |
| 2026-04-17 22:05 | 48.68964 | 9.21611 | 1290 ft | 3 kts | 283° |
| 2026-04-17 22:05 | 48.68971 | 9.21566 | 1290 ft | 6 kts | 283° |
| 2026-04-17 22:05 | 48.68983 | 9.21494 | 1290 ft | 8 kts | 284° |
| 2026-04-17 22:06 | 48.68999 | 9.21404 | 1290 ft | 9 kts | 284° |
| 2026-04-17 22:06 | 48.68994 | 9.21302 | 1290 ft | 11 kts | 254° |
| 2026-04-17 22:06 | 48.68970 | 9.21176 | 1290 ft | 14 kts | 253° |
| 2026-04-17 22:06 | 48.68941 | 9.21024 | 1290 ft | 16 kts | 254° |
| 2026-04-17 22:07 | 48.68910 | 9.20850 | 1290 ft | 15 kts | 254° |
| 2026-04-17 22:07 | 48.68898 | 9.20743 | 1290 ft | 7 kts | 294° |
| 2026-04-17 22:07 | 48.68933 | 9.20678 | 1290 ft | 8 kts | 311° |
| 2026-04-17 22:07 | 48.68973 | 9.20614 | 1290 ft | 9 kts | 314° |
| 2026-04-17 22:08 | 48.69016 | 9.20547 | 1290 ft | 9 kts | 315° |
| 2026-04-17 22:08 | 48.69056 | 9.20481 | 1290 ft | 7 kts | 300° |
| 2026-04-17 22:08 | 48.69057 | 9.20415 | 1290 ft | 5 kts | 240° |
| 2026-04-17 22:08 | 48.69027 | 9.20404 | 1290 ft | 5 kts | 166° |
| 2026-04-17 22:09 | 48.69002 | 9.20413 | 1290 ft | 4 kts | 165° |
| 2026-04-17 22:09 | 48.68994 | 9.20416 | 1290 ft | 0 kts | 164° |